Date,TemperatureHighF,TemperatureAvgF,TemperatureLowF,DewpointHighF,DewpointAvgF,DewpointLowF,HumidityHigh,HumidityAvg,HumidityLow,PressureMaxIn,PressureMinIn,WindSpeedMaxMPH,WindSpeedAvgMPH,GustSpeedMaxMPH,PrecipitationSumIn
2013-3-1,34,31,27,30,26,23,91,82,67,30.03,29.86,18,4,18,0.01
2013-3-2,30,27,25,24,22,20,88,82,71,30.02,29.96,14,3,14,0.00
2013-3-3,28,26,23,24,20,17,96,80,67,30.09,29.99,14,3,15,0.01
2013-3-4,38,29,23,22,18,14,86,65,48,30.20,30.08,18,2,18,0.00
2013-3-5,49,36,22,30,21,17,94,60,30,30.15,29.69,17,1,17,0.00
2013-3-6,40,35,31,33,30,28,93,83,68,30.15,29.68,13,1,13,0.30
2013-3-7,40,35,33,33,30,27,89,83,68,30.33,30.14,16,3,16,0.01
2013-3-8,36,33,28,28,26,24,84,76,69,30.47,30.32,20,5,20,0.00
2013-3-9,59,39,22,33,26,19,92,64,31,30.47,30.22,7,0,7,0.00
2013-3-10,72,55,39,36,30,24,75,41,23,30.22,30.00,12,2,15,0.00
2013-3-11,65,58,52,49,36,30,88,44,28,30.03,29.71,26,4,26,0.07
2013-3-12,52,40,36,50,34,29,90,80,71,30.05,29.75,14,3,14,0.03
2013-3-13,37,32,28,31,26,19,92,79,54,30.20,29.97,26,3,26,0.05
2013-3-14,40,31,25,24,20,17,80,63,45,30.30,30.18,19,3,20,0.00
2013-3-15,51,39,28,35,27,18,68,61,50,30.20,29.85,19,3,19,0.00
2013-3-16,47,42,36,44,39,32,93,88,68,29.99,29.63,16,2,17,0.02
2013-3-17,37,34,30,32,25,23,86,71,57,30.23,29.99,11,2,11,0.00
2013-3-18,45,38,33,39,32,24,92,82,68,30.18,29.73,17,3,17,0.51
2013-3-19,47,41,31,44,28,12,92,64,28,30.02,29.73,27,6,27,0.03
2013-3-20,42,34,28,21,18,15,65,52,40,30.03,29.84,21,4,22,0.00
2013-3-21,28,25,19,20,14,8,86,65,48,30.00,29.91,18,4,21,0.00
2013-3-22,39,30,24,22,19,16,76,63,47,30.08,29.98,18,4,18,0.00
2013-3-23,47,34,21,26,22,17,86,62,36,30.10,30.01,16,2,16,0.00
2013-3-24,43,34,28,30,24,21,91,69,45,30.04,29.55,10,1,10,0.00
2013-3-25,36,33,31,33,31,29,93,91,86,29.77,29.48,10,1,10,0.46
2013-3-26,41,35,32,32,30,29,93,83,65,30.13,29.77,21,4,21,0.17
2013-3-27,42,36,32,31,28,25,88,72,52,30.22,30.11,18,3,18,0.00
2013-3-28,43,38,34,30,29,27,78,68,55,30.31,30.18,15,3,15,0.00
2013-3-29,51,40,36,32,29,24,78,66,37,30.31,30.19,9,1,14,0.00
2013-3-30,56,43,27,30,24,20,87,51,27,30.30,30.05,8,1,10,0.00
2013-3-31,49,45,38,46,37,21,91,76,43,30.05,29.76,6,2,13,0.12